createdAt,value
2023-04-08T00:01:11.310Z,5.85
2023-04-08T00:03:38.568Z,6.90
2023-04-08T00:06:07.602Z,7.14
2023-04-08T00:08:36.381Z,6.08
2023-04-08T00:11:03.090Z,4.96
2023-04-08T00:13:29.884Z,4.11
2023-04-08T00:15:56.371Z,3.51
2023-04-08T00:18:22.797Z,3.07
2023-04-08T00:20:50.454Z,2.71
2023-04-08T00:23:17.743Z,2.40
2023-04-08T00:25:45.099Z,2.16
2023-04-08T00:28:13.939Z,1.94
2023-04-08T00:30:41.209Z,1.74
2023-04-08T00:33:08.235Z,1.55
2023-04-08T00:35:34.930Z,1.67
2023-04-08T00:38:03.008Z,3.50
2023-04-08T00:40:29.748Z,5.40
2023-04-08T00:42:57.865Z,6.69
2023-04-08T00:45:27.894Z,6.56
2023-04-08T00:47:56.041Z,5.36
2023-04-08T00:50:22.791Z,4.38
2023-04-08T00:52:52.610Z,3.70
2023-04-08T00:55:20.010Z,3.22
2023-04-08T00:57:48.027Z,2.82
2023-04-08T01:00:16.353Z,2.47
2023-04-08T01:03:12.009Z,2.17
2023-04-08T01:06:02.994Z,1.85
2023-04-08T01:08:32.448Z,1.59
2023-04-08T01:11:02.630Z,1.37
2023-04-08T01:13:36.852Z,1.56
2023-04-08T01:16:03.886Z,3.46
2023-04-08T01:18:35.945Z,5.14
2023-04-08T01:21:04.837Z,6.44
2023-04-08T01:23:50.961Z,5.81
2023-04-08T01:26:25.057Z,4.53
2023-04-08T01:29:01.164Z,3.64
2023-04-08T01:31:29.510Z,2.96
2023-04-08T01:34:01.064Z,2.49
2023-04-08T01:36:31.958Z,2.15
2023-04-08T01:39:02.284Z,1.86
2023-04-08T01:41:31.354Z,1.61
2023-04-08T01:44:03.269Z,1.38
2023-04-08T01:46:32.031Z,1.19
2023-04-08T01:49:00.411Z,1.37
2023-04-08T01:51:32.010Z,3.10
2023-04-08T01:53:59.095Z,5.07
2023-04-08T01:56:30.149Z,6.47
2023-04-08T01:59:05.552Z,6.13
2023-04-08T02:01:34.980Z,4.93
2023-04-08T02:04:03.779Z,3.98
2023-04-08T02:06:31.426Z,3.24
2023-04-08T02:09:03.360Z,2.69
2023-04-08T02:11:31.354Z,2.24
2023-04-08T02:14:01.171Z,1.85
2023-04-08T02:16:45.478Z,1.53
2023-04-08T02:19:31.489Z,2.84
2023-04-08T02:22:17.977Z,5.14
2023-04-08T02:24:47.181Z,5.88
2023-04-08T02:27:15.158Z,4.80
2023-04-08T02:29:42.662Z,3.67
2023-04-08T02:32:12.527Z,2.96
2023-04-08T02:34:41.962Z,2.44
2023-04-08T02:37:10.087Z,2.03
2023-04-08T02:39:36.781Z,1.70
2023-04-08T02:42:05.270Z,1.47
2023-04-08T02:44:32.180Z,1.27
2023-04-08T02:46:58.648Z,1.12
2023-04-08T02:49:26.192Z,2.42
2023-04-08T02:51:55.362Z,4.46
2023-04-08T02:54:24.357Z,5.89
2023-04-08T02:56:50.802Z,5.92
2023-04-08T02:59:17.553Z,4.57
2023-04-08T03:01:44.786Z,3.35
2023-04-08T03:04:11.418Z,2.65
2023-04-08T03:06:42.991Z,2.03
2023-04-08T03:09:15.087Z,1.70
2023-04-08T03:11:47.062Z,2.98
2023-04-08T03:14:13.898Z,4.87
2023-04-08T03:16:43.648Z,5.97
2023-04-08T03:19:10.532Z,5.17
2023-04-08T03:21:37.036Z,4.05
2023-04-08T03:24:05.671Z,3.20
2023-04-08T03:26:32.390Z,2.59
2023-04-08T03:29:00.079Z,2.14
2023-04-08T03:31:26.998Z,1.79
2023-04-08T03:33:53.994Z,1.49
2023-04-08T03:36:21.892Z,1.22
2023-04-08T03:38:48.888Z,1.00
2023-04-08T03:41:16.031Z,0.81
2023-04-08T03:43:42.767Z,0.65
2023-04-08T03:46:10.595Z,0.56
2023-04-08T03:48:38.309Z,1.76
2023-04-08T03:51:04.744Z,3.79
2023-04-08T03:53:35.871Z,5.02
2023-04-08T03:56:04.166Z,4.74
2023-04-08T03:58:33.425Z,3.55
2023-04-08T04:01:00.155Z,2.63
2023-04-08T04:03:26.716Z,1.95
2023-04-08T04:05:55.656Z,1.50
2023-04-08T04:08:22.711Z,2.38
2023-04-08T04:10:51.564Z,4.17
2023-04-08T04:13:19.753Z,5.61
2023-04-08T04:15:48.686Z,5.39
2023-04-08T04:18:15.801Z,4.34
2023-04-08T04:20:43.737Z,3.36
2023-04-08T04:23:11.703Z,2.59
2023-04-08T04:25:41.876Z,1.99
2023-04-08T04:28:09.772Z,1.54
2023-04-08T04:30:40.223Z,1.18
2023-04-08T04:33:07.215Z,0.86
2023-04-08T04:35:34.735Z,1.00
2023-04-08T04:38:01.573Z,2.68
2023-04-08T04:40:28.083Z,4.54
2023-04-08T04:42:56.793Z,5.51
2023-04-08T04:45:23.586Z,4.68
2023-04-08T04:47:50.040Z,3.53
2023-04-08T04:50:18.059Z,2.71
2023-04-08T04:52:44.995Z,2.09
2023-04-08T04:55:12.813Z,1.55
2023-04-08T04:57:39.312Z,1.45
2023-04-08T05:00:10.628Z,3.19
2023-04-08T05:02:37.663Z,5.04
2023-04-08T05:05:07.481Z,6.01
2023-04-08T05:07:38.743Z,5.02
2023-04-08T05:10:07.152Z,3.82
2023-04-08T05:12:34.539Z,2.97
2023-04-08T05:15:02.722Z,2.36
2023-04-08T05:17:30.734Z,1.87
2023-04-08T05:19:57.231Z,1.51
2023-04-08T05:22:23.771Z,1.23
2023-04-08T05:24:50.403Z,1.12
2023-04-08T05:27:18.731Z,2.71
2023-04-08T05:29:45.331Z,4.87
2023-04-08T05:32:11.736Z,5.90
2023-04-08T05:34:38.237Z,4.99
2023-04-08T05:37:06.395Z,3.83
2023-04-08T05:39:32.835Z,2.88
2023-04-08T05:41:59.835Z,2.24
2023-04-08T05:44:29.113Z,1.79
2023-04-08T05:46:57.044Z,1.45
2023-04-08T05:49:24.783Z,1.16
2023-04-08T05:51:52.794Z,0.94
2023-04-08T05:54:23.581Z,1.25
2023-04-08T05:56:50.210Z,3.39
2023-04-08T05:59:16.720Z,5.00
2023-04-08T06:01:43.170Z,4.71
2023-04-08T06:04:09.856Z,3.82
2023-04-08T06:06:39.978Z,3.04
2023-04-08T06:09:09.465Z,2.46
2023-04-08T06:11:35.944Z,1.99
2023-04-08T06:14:03.115Z,1.68
2023-04-08T06:16:31.088Z,1.80
2023-04-08T06:19:00.108Z,3.51
2023-04-08T06:21:27.105Z,5.17
2023-04-08T06:23:53.602Z,4.92
2023-04-08T06:26:20.121Z,3.97
2023-04-08T06:28:47.117Z,3.22
2023-04-08T06:31:15.089Z,2.69
2023-04-08T06:33:42.197Z,2.28
2023-04-08T06:36:09.238Z,1.97
2023-04-08T06:38:35.935Z,2.71
2023-04-08T06:41:05.327Z,3.69
2023-04-08T06:43:34.810Z,3.15
2023-04-08T06:46:02.827Z,2.49
2023-04-08T06:48:32.310Z,2.58
2023-04-08T06:51:02.493Z,3.75
2023-04-08T06:53:32.624Z,3.98
2023-04-08T06:56:04.213Z,2.94
2023-04-08T06:58:32.086Z,2.38
2023-04-08T07:01:02.641Z,3.27
2023-04-08T07:03:30.284Z,4.30
2023-04-08T07:05:57.076Z,3.78
2023-04-08T07:08:24.395Z,2.97
2023-04-08T07:10:53.396Z,2.51
2023-04-08T07:13:20.677Z,2.45
2023-04-08T07:15:47.234Z,3.85
2023-04-08T07:18:14.258Z,4.83
2023-04-08T07:20:42.368Z,4.24
2023-04-08T07:23:09.117Z,3.62
2023-04-08T07:25:35.813Z,3.12
2023-04-08T07:28:02.548Z,2.92
2023-04-08T07:30:29.021Z,2.72
2023-04-08T07:32:59.233Z,2.60
2023-04-08T07:35:29.625Z,2.50
2023-04-08T07:37:57.432Z,2.46
2023-04-08T07:40:26.006Z,2.43
2023-04-08T07:42:52.505Z,2.99
2023-04-08T07:45:20.206Z,4.78
2023-04-08T07:47:46.782Z,5.05
2023-04-08T07:50:14.028Z,4.44
2023-04-08T07:52:40.531Z,3.91
2023-04-08T07:55:08.153Z,3.70
2023-04-08T07:57:37.644Z,3.56
2023-04-08T08:00:07.350Z,3.47
2023-04-08T08:05:32.244Z,3.39
2023-04-08T08:08:03.193Z,3.39
2023-04-08T08:10:29.632Z,3.41
2023-04-08T08:12:56.036Z,3.45
2023-04-08T08:15:22.859Z,3.48
2023-04-08T08:17:49.827Z,3.54
2023-04-08T08:20:19.424Z,3.60
2023-04-08T08:22:56.634Z,3.67
2023-04-08T08:25:31.650Z,3.78
2023-04-08T08:27:58.510Z,3.87
2023-04-08T08:30:27.739Z,3.95
2023-04-08T08:32:55.959Z,4.03
2023-04-08T08:35:24.183Z,4.11
2023-04-08T08:37:52.238Z,4.18
2023-04-08T08:40:20.015Z,4.26
2023-04-08T08:42:54.671Z,4.32
2023-04-08T08:45:24.677Z,4.40
2023-04-08T08:47:58.061Z,4.47
2023-04-08T08:50:25.881Z,4.55
2023-04-08T08:52:53.172Z,4.62
2023-04-08T08:55:41.420Z,4.69
2023-04-08T08:58:13.119Z,4.77
2023-04-08T09:00:42.098Z,4.89
2023-04-08T09:03:21.740Z,4.98
2023-04-08T09:05:58.650Z,5.08
2023-04-08T09:08:37.828Z,5.17
2023-04-08T09:11:18.645Z,5.29
2023-04-08T09:13:46.663Z,5.38
2023-04-08T09:16:19.604Z,5.48
2023-04-08T09:18:48.415Z,5.57
2023-04-08T09:21:18.542Z,5.66
2023-04-08T09:23:49.397Z,5.76
2023-04-08T09:26:21.902Z,5.87
2023-04-08T09:29:25.116Z,6.00
2023-04-08T09:31:58.065Z,6.17
2023-04-08T09:34:31.665Z,6.29
2023-04-08T09:36:58.055Z,6.40
2023-04-08T09:39:24.795Z,6.51
2023-04-08T09:41:57.881Z,6.60
2023-04-08T09:44:31.306Z,6.74
2023-04-08T09:47:21.520Z,6.86
2023-04-08T09:50:01.330Z,7.02
2023-04-08T09:52:46.740Z,7.16
2023-04-08T09:55:17.052Z,7.31
2023-04-08T09:57:52.620Z,7.46
2023-04-08T10:00:25.447Z,7.55
2023-04-08T10:03:12.728Z,7.63
2023-04-08T10:05:44.665Z,7.72
2023-04-08T10:08:12.983Z,7.82
2023-04-08T10:10:42.421Z,7.92
2023-04-08T10:13:14.021Z,8.06
2023-04-08T10:15:43.675Z,8.19
2023-04-08T10:18:33.284Z,8.26
2023-04-08T10:21:00.246Z,8.35
2023-04-08T10:23:57.051Z,8.46
2023-04-08T10:26:35.436Z,8.62
2023-04-08T10:29:18.484Z,8.75
2023-04-08T10:31:52.702Z,8.84
2023-04-08T10:34:27.346Z,8.92
2023-04-08T10:36:58.377Z,9.03
2023-04-08T10:39:27.069Z,9.12
2023-04-08T10:41:54.213Z,9.18
2023-04-08T10:44:32.115Z,9.22
2023-04-08T10:46:58.829Z,9.28
2023-04-08T10:49:34.234Z,9.34
2023-04-08T10:52:00.826Z,9.44
2023-04-08T10:54:29.041Z,9.54
2023-04-08T10:56:56.053Z,9.67
2023-04-08T10:59:32.492Z,9.79
2023-04-08T11:02:02.059Z,9.86
2023-04-08T11:04:33.220Z,9.89
2023-04-08T11:06:59.822Z,9.99
2023-04-08T11:09:27.192Z,10.16
2023-04-08T11:11:54.054Z,10.34
2023-04-08T11:17:05.220Z,10.54
2023-04-08T11:19:33.578Z,10.61
2023-04-08T11:22:02.094Z,10.68
2023-04-08T11:24:29.146Z,10.77
2023-04-08T11:26:59.486Z,10.83
2023-04-08T11:29:26.076Z,10.85
2023-04-08T11:31:53.469Z,10.88
2023-04-08T11:34:28.227Z,10.90
2023-04-08T11:36:58.097Z,10.89
2023-04-08T11:39:26.178Z,10.89
2023-04-08T11:41:54.955Z,10.91
2023-04-08T11:44:31.798Z,10.97
2023-04-08T11:47:02.373Z,11.12
2023-04-08T11:49:45.004Z,11.26
2023-04-08T11:52:14.307Z,11.40
2023-04-08T11:54:43.745Z,11.51
2023-04-08T11:57:11.488Z,11.60
2023-04-08T11:59:38.165Z,11.71
2023-04-08T12:02:05.643Z,11.80
2023-04-08T12:04:33.585Z,11.87
2023-04-08T12:07:00.440Z,12.00
2023-04-08T12:09:27.950Z,12.07
2023-04-08T12:11:56.425Z,12.16
2023-04-08T12:14:26.240Z,12.37
2023-04-08T12:16:55.177Z,12.57
2023-04-08T12:19:22.074Z,12.77
2023-04-08T12:21:49.520Z,12.95
2023-04-08T12:24:16.009Z,13.15
2023-04-08T12:26:42.409Z,13.33
2023-04-08T12:29:11.705Z,13.48
2023-04-08T12:31:40.406Z,13.57
2023-04-08T12:34:08.032Z,13.61
2023-04-08T12:36:35.518Z,13.67
2023-04-08T12:39:02.500Z,13.76
2023-04-08T12:41:31.454Z,13.88
2023-04-08T12:43:57.816Z,14.05
2023-04-08T12:46:24.586Z,14.19
2023-04-08T12:49:02.922Z,14.30
2023-04-08T12:51:30.425Z,14.47
2023-04-08T12:53:57.086Z,14.64
2023-04-08T12:56:23.644Z,14.75
2023-04-08T12:58:53.052Z,14.86
2023-04-08T13:01:20.425Z,15.01
2023-04-08T13:03:48.797Z,15.16
2023-04-08T13:06:16.178Z,15.25
2023-04-08T13:08:43.555Z,15.19
2023-04-08T13:11:10.393Z,14.93
2023-04-08T13:13:37.139Z,14.76
2023-04-08T13:16:04.569Z,14.75
2023-04-08T13:18:31.662Z,14.80
2023-04-08T13:20:58.761Z,14.85
2023-04-08T13:23:25.771Z,14.87
2023-04-08T13:25:52.171Z,14.84
2023-04-08T13:28:21.643Z,14.91
2023-04-08T13:30:48.298Z,14.97
2023-04-08T13:33:15.052Z,15.00
2023-04-08T13:35:44.706Z,15.05
2023-04-08T13:38:13.159Z,15.16
2023-04-08T13:40:40.059Z,15.25
2023-04-08T13:43:09.637Z,15.33
2023-04-08T13:45:36.401Z,15.42
2023-04-08T13:48:04.255Z,15.48
2023-04-08T13:50:31.402Z,15.50
2023-04-08T13:52:58.228Z,15.49
2023-04-08T13:55:26.038Z,15.44
2023-04-08T13:57:52.596Z,15.43
2023-04-08T14:00:19.090Z,15.44
2023-04-08T14:02:46.034Z,15.41
2023-04-08T14:05:12.574Z,15.44
2023-04-08T14:07:39.103Z,15.53
2023-04-08T14:10:07.127Z,15.58
2023-04-08T14:12:35.594Z,15.64
2023-04-08T14:15:03.569Z,15.68
2023-04-08T14:17:30.314Z,15.65
2023-04-08T14:19:58.976Z,15.61
2023-04-08T14:22:25.969Z,15.54
2023-04-08T14:24:52.597Z,15.49
2023-04-08T14:27:19.539Z,15.47
2023-04-08T14:29:49.205Z,15.44
2023-04-08T14:32:17.822Z,15.38
2023-04-08T14:34:44.426Z,15.29
2023-04-08T14:37:11.903Z,15.23
2023-04-08T14:39:38.708Z,15.23
2023-04-08T14:42:05.386Z,15.24
2023-04-08T14:44:33.687Z,15.25
2023-04-08T14:47:00.817Z,15.26
2023-04-08T14:49:27.387Z,15.27
2023-04-08T14:51:53.952Z,15.28
2023-04-08T14:54:20.425Z,15.28
2023-04-08T14:56:47.212Z,15.24
2023-04-08T14:59:14.062Z,15.24
2023-04-08T15:01:41.948Z,15.24
2023-04-08T15:04:08.675Z,15.26
2023-04-08T15:06:38.475Z,15.27
2023-04-08T15:09:06.948Z,15.20
2023-04-08T15:11:33.963Z,15.10
2023-04-08T15:14:01.109Z,14.99
2023-04-08T15:16:28.501Z,14.94
2023-04-08T15:18:59.044Z,14.97
2023-04-08T15:21:26.973Z,15.03
2023-04-08T15:23:53.773Z,15.12
2023-04-08T15:26:21.554Z,15.22
2023-04-08T15:28:49.432Z,15.28
2023-04-08T15:31:16.965Z,15.32
2023-04-08T15:33:45.599Z,15.40
2023-04-08T15:36:18.926Z,15.50
2023-04-08T15:38:47.063Z,15.57
2023-04-08T15:41:20.767Z,15.68
2023-04-08T15:43:49.553Z,15.74
2023-04-08T15:46:22.947Z,15.71
2023-04-08T15:48:50.037Z,15.69
2023-04-08T15:51:17.996Z,15.65
2023-04-08T15:53:45.192Z,15.64
2023-04-08T15:56:16.603Z,15.69
2023-04-08T15:58:45.960Z,15.78
2023-04-08T16:01:13.743Z,15.88
2023-04-08T16:03:40.988Z,15.90
2023-04-08T16:06:12.150Z,15.87
2023-04-08T16:08:39.999Z,15.89
2023-04-08T16:11:10.301Z,15.95
2023-04-08T16:13:38.597Z,15.94
2023-04-08T16:16:08.066Z,15.86
2023-04-08T16:18:35.043Z,15.77
2023-04-08T16:21:05.529Z,15.65
2023-04-08T16:23:37.115Z,15.48
2023-04-08T16:26:07.341Z,15.30
2023-04-08T16:28:41.119Z,15.15
2023-04-08T16:31:12.026Z,15.06
2023-04-08T16:33:42.209Z,15.03
2023-04-08T16:36:12.670Z,15.05
2023-04-08T16:38:39.130Z,15.03
2023-04-08T16:41:09.378Z,15.01
2023-04-08T16:43:38.373Z,15.00
2023-04-08T16:46:18.090Z,14.99
2023-04-08T16:48:44.929Z,14.93
2023-04-08T16:51:11.416Z,14.87
2023-04-08T16:53:38.299Z,14.80
2023-04-08T16:56:16.922Z,14.69
2023-04-08T16:58:45.091Z,14.56
2023-04-08T17:01:15.655Z,14.43
2023-04-08T17:03:42.516Z,14.28
2023-04-08T17:06:13.120Z,14.14
2023-04-08T17:08:42.934Z,14.04
2023-04-08T17:11:14.522Z,13.95
2023-04-08T17:13:44.924Z,13.85
2023-04-08T17:16:16.101Z,13.80
2023-04-08T17:18:46.523Z,13.69
2023-04-08T17:21:13.859Z,13.48
2023-04-08T17:23:41.565Z,13.22
2023-04-08T17:26:12.277Z,12.97
2023-04-08T17:28:39.206Z,12.69
2023-04-08T17:31:05.700Z,12.42
2023-04-08T17:33:34.047Z,12.16
2023-04-08T17:36:01.786Z,11.91
2023-04-08T17:38:33.726Z,11.70
2023-04-08T17:41:01.478Z,11.49
2023-04-08T17:43:27.935Z,11.28
2023-04-08T17:46:03.729Z,11.10
2023-04-08T17:48:30.546Z,10.90
2023-04-08T17:51:05.744Z,10.72
2023-04-08T17:53:36.356Z,10.56
2023-04-08T17:56:04.797Z,10.39
2023-04-08T17:58:31.547Z,10.21
2023-04-08T18:01:00.062Z,10.03
2023-04-08T18:03:30.380Z,9.87
2023-04-08T18:05:57.286Z,9.72
2023-04-08T18:08:23.800Z,9.58
2023-04-08T18:10:51.360Z,9.45
2023-04-08T18:13:21.925Z,9.34
2023-04-08T18:15:48.577Z,9.23
2023-04-08T18:18:18.881Z,9.11
2023-04-08T18:20:46.825Z,9.01
2023-04-08T18:23:14.854Z,8.88
2023-04-08T18:25:49.544Z,8.72
2023-04-08T18:28:21.785Z,8.50
2023-04-08T18:30:53.055Z,8.29
2023-04-08T18:33:19.910Z,8.10
2023-04-08T18:35:48.101Z,7.95
2023-04-08T18:38:16.477Z,7.78
2023-04-08T18:40:44.953Z,7.59
2023-04-08T18:43:13.792Z,7.51
2023-04-08T18:45:41.399Z,7.47
2023-04-08T18:48:10.259Z,7.41
2023-04-08T18:50:36.654Z,7.30
2023-04-08T18:53:04.232Z,7.13
2023-04-08T18:55:35.742Z,6.99
2023-04-08T18:58:03.418Z,6.88
2023-04-08T19:00:30.716Z,6.84
2023-04-08T19:02:59.895Z,6.85
2023-04-08T19:05:26.833Z,6.83
2023-04-08T19:07:55.555Z,6.82
2023-04-08T19:10:23.888Z,6.77
2023-04-08T19:12:50.859Z,6.71
2023-04-08T19:15:17.309Z,6.66
2023-04-08T19:17:46.274Z,6.61
2023-04-08T19:20:13.166Z,6.53
2023-04-08T19:22:40.454Z,6.46
2023-04-08T19:25:09.212Z,6.42
2023-04-08T19:27:37.261Z,6.39
2023-04-08T19:30:06.360Z,6.35
2023-04-08T19:32:35.679Z,6.29
2023-04-08T19:35:03.213Z,6.23
2023-04-08T19:37:32.429Z,6.20
2023-04-08T19:40:00.619Z,6.19
2023-04-08T19:42:29.062Z,6.19
2023-04-08T19:44:57.149Z,6.16
2023-04-08T19:47:26.963Z,6.14
2023-04-08T19:49:55.260Z,6.13
2023-04-08T19:52:24.648Z,6.10
2023-04-08T19:54:51.554Z,5.97
2023-04-08T19:57:18.703Z,5.77
2023-04-08T19:59:47.399Z,5.58
2023-04-08T20:02:21.626Z,5.45
2023-04-08T20:04:52.587Z,5.36
2023-04-08T20:07:20.241Z,5.29
2023-04-08T20:09:47.054Z,5.25
2023-04-08T20:12:13.660Z,5.25
2023-04-08T20:14:44.824Z,5.25
2023-04-08T20:17:11.985Z,5.25
2023-04-08T20:19:40.879Z,5.23
2023-04-08T20:22:07.592Z,5.19
2023-04-08T20:24:36.842Z,5.13
2023-04-08T20:27:03.580Z,5.02
2023-04-08T20:29:30.469Z,4.93
2023-04-08T20:32:01.332Z,4.85
2023-04-08T20:34:27.904Z,4.82
2023-04-08T20:36:57.391Z,4.82
2023-04-08T20:39:31.007Z,4.80
2023-04-08T20:41:59.777Z,4.80
2023-04-08T20:44:27.621Z,4.79
2023-04-08T20:46:54.946Z,4.77
2023-04-08T20:49:24.263Z,4.74
2023-04-08T20:51:50.866Z,4.70
2023-04-08T20:54:17.927Z,4.66
2023-04-08T20:56:46.706Z,4.62
2023-04-08T20:59:13.652Z,4.56
2023-04-08T21:01:40.907Z,4.49
2023-04-08T21:04:08.302Z,4.47
2023-04-08T21:06:36.945Z,4.46
2023-04-08T21:09:05.340Z,4.45
2023-04-08T21:11:33.696Z,4.46
2023-04-08T21:14:02.073Z,4.45
2023-04-08T21:16:30.218Z,4.44
2023-04-08T21:19:01.545Z,4.40
2023-04-08T21:21:28.214Z,4.36
2023-04-08T21:23:54.745Z,4.30
2023-04-08T21:26:22.503Z,4.18
2023-04-08T21:28:49.721Z,4.09
2023-04-08T21:31:16.720Z,4.01
2023-04-08T21:33:46.273Z,3.95
2023-04-08T21:36:13.239Z,3.91
2023-04-08T21:38:42.528Z,3.91
2023-04-08T21:41:10.634Z,3.90
2023-04-08T21:43:40.066Z,3.90
2023-04-08T21:46:06.888Z,3.89
2023-04-08T21:48:33.516Z,3.89
2023-04-08T21:51:00.579Z,3.87
2023-04-08T21:53:28.195Z,3.83
2023-04-08T21:55:56.374Z,3.79
2023-04-08T21:58:23.530Z,3.76
2023-04-08T22:00:50.363Z,3.72
2023-04-08T22:03:16.923Z,3.67
2023-04-08T22:05:46.084Z,3.66
2023-04-08T22:08:14.201Z,3.66
2023-04-08T22:10:41.526Z,3.65
2023-04-08T22:13:09.483Z,3.62
2023-04-08T22:15:37.944Z,3.60
2023-04-08T22:18:05.786Z,3.56
2023-04-08T22:20:32.961Z,3.51
2023-04-08T22:22:59.368Z,3.49
2023-04-08T22:25:27.681Z,3.47
2023-04-08T22:27:54.264Z,3.47
2023-04-08T22:30:21.438Z,3.43
2023-04-08T22:32:48.343Z,3.40
2023-04-08T22:35:15.834Z,3.36
2023-04-08T22:37:43.047Z,3.34
2023-04-08T22:40:09.828Z,3.31
2023-04-08T22:42:36.247Z,3.28
2023-04-08T22:45:04.353Z,3.27
2023-04-08T22:47:30.880Z,3.26
2023-04-08T22:49:57.593Z,3.26
2023-04-08T22:52:25.958Z,3.28
2023-04-08T22:54:52.393Z,3.28
2023-04-08T22:57:19.685Z,3.27
2023-04-08T22:59:46.745Z,3.27
2023-04-08T23:02:15.789Z,3.27
2023-04-08T23:04:42.787Z,3.24
2023-04-08T23:07:10.337Z,3.17
2023-04-08T23:09:36.842Z,3.11
2023-04-08T23:12:05.885Z,3.05
2023-04-08T23:14:32.326Z,3.01
2023-04-08T23:17:00.497Z,2.98
2023-04-08T23:19:28.830Z,2.95
2023-04-08T23:21:55.387Z,2.96
2023-04-08T23:24:22.117Z,2.92
2023-04-08T23:26:49.927Z,2.86
2023-04-08T23:29:16.912Z,2.84
2023-04-08T23:31:46.191Z,2.82
2023-04-08T23:34:12.935Z,2.81
2023-04-08T23:36:39.731Z,2.79
2023-04-08T23:39:07.537Z,2.75
2023-04-08T23:41:34.379Z,2.74
2023-04-08T23:44:01.438Z,2.75
2023-04-08T23:46:28.488Z,3.05
2023-04-08T23:48:55.500Z,4.98
2023-04-08T23:51:22.663Z,7.10
2023-04-08T23:53:51.581Z,8.54
2023-04-08T23:56:18.055Z,8.25
2023-04-08T23:58:44.945Z,7.16
